createdAt,value
2024-01-22T00:01:41.479Z,1.77
2024-01-22T00:07:03.289Z,1.92
2024-01-22T00:12:25.057Z,1.74
2024-01-22T00:17:47.235Z,1.59
2024-01-22T00:23:09.064Z,1.66
2024-01-22T00:28:30.917Z,1.82
2024-01-22T00:33:52.900Z,1.63
2024-01-22T00:39:14.824Z,1.75
2024-01-22T00:44:36.693Z,1.44
2024-01-22T00:49:58.461Z,1.70
2024-01-22T00:55:20.265Z,1.73
2024-01-22T01:00:42.041Z,1.56
2024-01-22T01:06:04.001Z,1.50
2024-01-22T01:11:25.782Z,1.49
2024-01-22T01:16:47.526Z,1.18
2024-01-22T01:22:09.488Z,1.05
2024-01-22T01:27:31.236Z,1.21
2024-01-22T01:32:53.399Z,1.01
2024-01-22T01:38:15.298Z,0.96
2024-01-22T01:43:37.129Z,1.08
2024-01-22T01:48:59.624Z,1.02
2024-01-22T02:05:43.120Z,1.04
2024-01-22T02:11:04.970Z,1.09
2024-01-22T02:16:26.727Z,0.88
2024-01-22T02:21:48.452Z,0.99
2024-01-22T02:27:10.303Z,0.66
2024-01-22T02:32:32.058Z,0.84
2024-01-22T02:37:53.799Z,0.90
2024-01-22T02:43:15.516Z,0.74
2024-01-22T02:48:37.471Z,0.80
2024-01-22T02:53:59.311Z,0.55
2024-01-22T02:59:21.035Z,0.43
2024-01-22T03:04:42.792Z,0.71
2024-01-22T03:10:05.008Z,0.60
2024-01-22T03:15:26.855Z,0.55
2024-01-22T03:20:48.672Z,0.76
2024-01-22T03:26:19.518Z,0.66
2024-01-22T03:31:41.290Z,0.89
2024-01-22T03:37:03.048Z,0.80
2024-01-22T03:42:24.824Z,0.86
2024-01-22T03:47:46.672Z,0.38
2024-01-22T03:53:09.139Z,0.47
2024-01-22T03:58:31.230Z,0.65
2024-01-22T04:03:54.581Z,0.85
2024-01-22T04:09:16.350Z,0.37
2024-01-22T04:14:38.189Z,0.72
2024-01-22T04:20:00.007Z,0.57
2024-01-22T04:25:21.908Z,0.73
2024-01-22T04:30:46.655Z,0.37
2024-01-22T04:36:09.216Z,0.55
2024-01-22T04:41:30.957Z,0.56
2024-01-22T04:46:52.783Z,0.48
2024-01-22T04:52:14.499Z,0.81
2024-01-22T04:57:36.230Z,0.86
2024-01-22T05:02:58.218Z,0.78
2024-01-22T05:08:20.027Z,0.69
2024-01-22T05:13:51.932Z,0.52
2024-01-22T05:19:13.909Z,0.35
2024-01-22T05:24:35.694Z,0.38
2024-01-22T05:29:57.907Z,0.23
2024-01-22T05:35:19.730Z,0.11
2024-01-22T05:40:41.688Z,0.11
2024-01-22T05:46:03.456Z,0.19
2024-01-22T05:51:25.256Z,0.12
2024-01-22T05:56:47.359Z,0.20
2024-01-22T06:02:09.172Z,0.26
2024-01-22T06:07:30.989Z,-0.08
2024-01-22T06:12:52.937Z,0.07
2024-01-22T06:18:14.685Z,-0.03
2024-01-22T06:23:36.493Z,-0.03
2024-01-22T06:28:58.221Z,-0.07
2024-01-22T06:34:20.440Z,0.34
2024-01-22T06:39:42.356Z,0.02
2024-01-22T06:45:04.683Z,0.01
2024-01-22T06:50:26.458Z,0.19
2024-01-22T06:55:48.234Z,-0.07
2024-01-22T07:01:09.998Z,0.23
2024-01-22T07:06:31.810Z,0.47
2024-01-22T07:11:53.598Z,1.13
2024-01-22T07:17:19.289Z,1.35
2024-01-22T07:22:47.497Z,1.32
2024-01-22T07:28:10.396Z,1.43
2024-01-22T07:33:32.288Z,1.70
2024-01-22T07:38:54.191Z,1.87
2024-01-22T07:44:15.926Z,2.08
2024-01-22T07:49:37.747Z,2.58
2024-01-22T07:55:01.590Z,2.48
2024-01-22T08:00:23.472Z,2.76
2024-01-22T08:05:45.304Z,2.58
2024-01-22T08:11:07.455Z,2.34
2024-01-22T08:16:29.196Z,2.60
2024-01-22T08:21:51.099Z,2.89
2024-01-22T08:27:12.897Z,3.06
2024-01-22T08:32:34.755Z,3.08
2024-01-22T08:37:56.548Z,2.94
2024-01-22T08:43:18.289Z,3.27
2024-01-22T08:48:40.140Z,3.19
2024-01-22T08:54:01.912Z,3.14
2024-01-22T08:59:23.679Z,3.11
2024-01-22T09:04:45.539Z,2.89
2024-01-22T09:10:07.881Z,3.33
2024-01-22T09:15:29.787Z,3.26
2024-01-22T09:20:52.774Z,3.63
2024-01-22T09:26:14.623Z,3.53
2024-01-22T09:31:36.506Z,3.70
2024-01-22T09:36:58.299Z,3.84
2024-01-22T09:42:20.151Z,3.60
2024-01-22T09:47:42.217Z,3.83
2024-01-22T09:53:12.206Z,3.65
2024-01-22T09:58:42.731Z,3.94
2024-01-22T10:04:05.010Z,3.91
2024-01-22T10:09:26.745Z,3.92
2024-01-22T10:14:48.578Z,3.92
2024-01-22T10:20:11.071Z,3.89
2024-01-22T10:25:32.877Z,4.34
2024-01-22T10:31:05.212Z,4.02
2024-01-22T10:36:27.171Z,4.25
2024-01-22T10:41:48.944Z,4.30
2024-01-22T10:47:17.633Z,4.58
2024-01-22T10:52:40.343Z,4.63
2024-01-22T10:58:07.221Z,4.91
2024-01-22T11:03:29.688Z,5.05
2024-01-22T11:08:56.112Z,5.15
2024-01-22T11:14:17.916Z,4.62
2024-01-22T11:19:39.849Z,4.91
2024-01-22T11:25:03.137Z,5.63
2024-01-22T11:30:24.893Z,5.56
2024-01-22T11:35:47.158Z,5.84
2024-01-22T11:41:09.353Z,6.06
2024-01-22T11:46:31.121Z,6.43
2024-01-22T11:51:53.171Z,6.89
2024-01-22T11:57:14.988Z,6.25
2024-01-22T12:02:41.348Z,6.79
2024-01-22T12:08:03.225Z,6.98
2024-01-22T12:13:24.972Z,7.00
2024-01-22T12:18:47.356Z,7.12
2024-01-22T12:24:13.959Z,6.72
2024-01-22T12:29:35.695Z,7.02
2024-01-22T12:34:58.890Z,7.17
2024-01-22T12:40:21.264Z,6.84
2024-01-22T12:45:43.333Z,7.26
2024-01-22T12:51:07.093Z,7.08
2024-01-22T12:56:28.842Z,7.45
2024-01-22T13:01:50.742Z,7.51
2024-01-22T13:07:12.801Z,7.01
2024-01-22T13:12:36.624Z,6.89
2024-01-22T13:17:59.944Z,6.82
2024-01-22T13:23:21.882Z,6.63
2024-01-22T13:28:43.668Z,7.00
2024-01-22T13:34:05.877Z,7.01
2024-01-22T13:39:27.974Z,7.18
2024-01-22T13:44:49.855Z,7.08
2024-01-22T13:50:11.690Z,7.18
2024-01-22T13:55:33.476Z,6.84
2024-01-22T14:00:55.320Z,6.95
2024-01-22T14:06:17.242Z,6.98
2024-01-22T14:11:39.282Z,7.08
2024-01-22T14:17:01.069Z,7.38
2024-01-22T14:22:25.982Z,7.06
2024-01-22T14:27:48.351Z,6.94
2024-01-22T14:33:10.276Z,7.01
2024-01-22T14:38:34.989Z,6.89
2024-01-22T14:43:58.863Z,6.98
2024-01-22T14:49:20.718Z,6.78
2024-01-22T14:54:42.528Z,7.22
2024-01-22T15:00:04.972Z,7.30
2024-01-22T15:05:26.873Z,6.58
2024-01-22T15:10:48.654Z,6.52
2024-01-22T15:16:11.595Z,6.86
2024-01-22T15:21:33.932Z,6.93
2024-01-22T15:26:55.905Z,6.64
2024-01-22T15:32:17.953Z,6.66
2024-01-22T15:37:39.992Z,6.89
2024-01-22T15:43:01.872Z,7.05
2024-01-22T15:48:23.801Z,6.71
2024-01-22T15:53:46.144Z,6.31
2024-01-22T15:59:08.340Z,6.27
2024-01-22T16:04:30.253Z,6.40
2024-01-22T16:09:52.147Z,6.67
2024-01-22T16:15:14.110Z,6.90
2024-01-22T16:20:35.893Z,6.60
2024-01-22T16:25:57.689Z,6.68
2024-01-22T16:31:19.464Z,6.56
2024-01-22T16:36:41.375Z,6.69
2024-01-22T16:42:03.295Z,6.94
2024-01-22T16:47:25.095Z,6.37
2024-01-22T16:52:46.928Z,6.49
2024-01-22T16:58:09.105Z,6.29
2024-01-22T17:03:30.857Z,6.52
2024-01-22T17:08:52.996Z,6.25
2024-01-22T17:14:14.958Z,6.25
2024-01-22T17:19:38.581Z,6.46
2024-01-22T17:25:00.394Z,5.90
2024-01-22T17:30:22.832Z,5.69
2024-01-22T17:35:45.026Z,5.96
2024-01-22T17:41:07.328Z,6.26
2024-01-22T17:46:29.238Z,6.25
2024-01-22T17:51:51.127Z,6.51
2024-01-22T17:57:12.874Z,6.68
2024-01-22T18:02:34.651Z,6.36
2024-01-22T18:07:56.412Z,6.52
2024-01-22T18:13:18.164Z,6.01
2024-01-22T18:18:40.027Z,6.14
2024-01-22T18:24:01.944Z,6.03
2024-01-22T18:29:23.717Z,6.20
2024-01-22T18:34:45.580Z,6.45
2024-01-22T18:40:08.145Z,6.35
2024-01-22T18:45:29.915Z,6.21
2024-01-22T18:50:51.965Z,5.94
2024-01-22T18:56:13.822Z,6.40
2024-01-22T19:01:35.619Z,6.36
2024-01-22T19:06:57.364Z,6.72
2024-01-22T19:12:19.218Z,6.30
2024-01-22T19:17:41.004Z,6.42
2024-01-22T19:23:03.265Z,6.55
2024-01-22T19:28:24.996Z,6.40
2024-01-22T19:33:46.985Z,6.87
2024-01-22T19:39:08.818Z,6.28
2024-01-22T19:44:30.578Z,6.66
2024-01-22T19:49:52.371Z,6.79
2024-01-22T19:55:14.128Z,6.85
2024-01-22T20:00:36.238Z,6.72
2024-01-22T20:05:58.259Z,6.71
2024-01-22T20:11:20.026Z,6.96
2024-01-22T20:16:41.840Z,6.90
2024-01-22T20:22:03.756Z,6.77
2024-01-22T20:27:25.516Z,6.60
2024-01-22T20:32:47.353Z,6.96
2024-01-22T20:38:09.218Z,6.83
2024-01-22T20:43:30.984Z,6.71
2024-01-22T20:48:52.991Z,6.52
2024-01-22T20:54:14.964Z,6.73
2024-01-22T20:59:36.934Z,6.93
2024-01-22T21:04:58.741Z,7.00
2024-01-22T21:10:20.714Z,6.78
2024-01-22T21:15:42.733Z,7.06
2024-01-22T21:21:04.879Z,7.17
2024-01-22T21:26:27.309Z,7.09
2024-01-22T21:31:49.084Z,7.19
2024-01-22T21:37:10.828Z,7.17
2024-01-22T21:42:32.600Z,7.27
2024-01-22T21:47:54.471Z,7.23
2024-01-22T21:53:16.389Z,7.11
2024-01-22T21:58:38.159Z,7.27
2024-01-22T22:04:00.288Z,7.22
2024-01-22T22:09:22.171Z,6.15
2024-01-22T22:14:43.948Z,6.82
2024-01-22T22:20:06.719Z,6.46
2024-01-22T22:25:29.140Z,6.12
2024-01-22T22:30:53.511Z,6.12
2024-01-22T22:36:15.786Z,5.91
2024-01-22T22:41:41.177Z,5.76
2024-01-22T22:47:03.068Z,5.74
2024-01-22T22:52:24.774Z,5.87
2024-01-22T22:57:46.491Z,5.79
2024-01-22T23:03:08.704Z,5.89
2024-01-22T23:14:13.586Z,6.01
2024-01-22T23:19:35.355Z,5.72
2024-01-22T23:24:59.944Z,5.82
2024-01-22T23:30:21.751Z,5.85
2024-01-22T23:35:43.507Z,5.54
2024-01-22T23:46:44.528Z,5.79
2024-01-22T23:52:06.369Z,5.92
2024-01-22T23:57:28.084Z,6.22
